createdAt,value
2023-03-16T00:02:03.985Z,16.70
2023-03-16T00:04:31.508Z,15.93
2023-03-16T00:06:58.967Z,15.17
2023-03-16T00:09:30.900Z,15.27
2023-03-16T00:11:58.921Z,15.87
2023-03-16T00:14:26.438Z,14.70
2023-03-16T00:16:53.304Z,15.60
2023-03-16T00:19:19.892Z,16.80
2023-03-16T00:21:46.429Z,18.77
2023-03-16T00:24:13.064Z,17.57
2023-03-16T00:26:39.776Z,18.60
2023-03-16T00:29:06.350Z,18.27
2023-03-16T00:31:33.853Z,18.80
2023-03-16T00:34:02.854Z,18.07
2023-03-16T00:36:30.221Z,17.53
2023-03-16T00:38:56.749Z,17.70
2023-03-16T00:41:23.278Z,17.57
2023-03-16T00:43:51.616Z,17.90
2023-03-16T00:46:18.543Z,17.50
2023-03-16T00:48:47.018Z,18.53
2023-03-16T00:51:16.532Z,18.93
2023-03-16T00:53:45.062Z,21.50
2023-03-16T00:56:13.618Z,20.07
2023-03-16T00:58:42.983Z,19.23
2023-03-16T01:01:16.147Z,20.70
2023-03-16T01:03:43.104Z,20.10
2023-03-16T01:06:13.313Z,20.37
2023-03-16T01:08:40.779Z,21.30
2023-03-16T01:11:10.394Z,20.90
2023-03-16T01:13:38.285Z,20.17
2023-03-16T01:16:05.392Z,22.57
2023-03-16T01:18:34.144Z,21.30
2023-03-16T01:21:06.144Z,26.05
2023-03-16T01:23:33.108Z,22.40
2023-03-16T01:26:00.298Z,22.10
2023-03-16T01:28:28.660Z,22.43
2023-03-16T01:31:00.348Z,21.87
2023-03-16T01:33:28.393Z,22.73
2023-03-16T01:35:56.990Z,24.20
2023-03-16T01:38:24.254Z,23.27
2023-03-16T01:40:52.244Z,24.93
2023-03-16T01:43:20.605Z,24.23
2023-03-16T01:46:18.069Z,24.37
2023-03-16T01:49:12.269Z,24.93
2023-03-16T01:51:51.994Z,28.03
2023-03-16T01:54:32.370Z,25.53
2023-03-16T01:57:09.464Z,36.65
2023-03-16T01:59:48.542Z,26.47
2023-03-16T02:02:19.959Z,24.00
2023-03-16T02:05:13.062Z,24.50
2023-03-16T02:07:50.532Z,24.70
2023-03-16T02:10:20.244Z,23.30
2023-03-16T02:12:47.428Z,25.40
2023-03-16T02:15:15.023Z,24.00
2023-03-16T02:17:44.196Z,24.57
2023-03-16T02:20:35.837Z,25.37
2023-03-16T02:23:04.576Z,24.73
2023-03-16T02:25:46.117Z,25.20
2023-03-16T02:28:35.522Z,25.37
2023-03-16T02:31:03.577Z,26.70
2023-03-16T02:33:33.593Z,29.47
2023-03-16T02:36:00.383Z,38.47
2023-03-16T02:38:26.947Z,28.77
2023-03-16T02:41:10.825Z,28.17
2023-03-16T02:43:41.582Z,25.90
2023-03-16T02:46:08.777Z,28.90
2023-03-16T02:48:38.308Z,27.67
2023-03-16T02:51:05.127Z,27.13
2023-03-16T02:53:31.698Z,27.07
2023-03-16T02:55:58.249Z,28.20
2023-03-16T02:58:24.836Z,28.77
2023-03-16T03:00:51.612Z,28.80
2023-03-16T03:03:18.796Z,28.80
2023-03-16T03:05:45.689Z,29.87
2023-03-16T03:08:12.906Z,30.70
2023-03-16T03:10:39.802Z,30.13
2023-03-16T03:13:09.510Z,28.33
2023-03-16T03:15:36.103Z,29.47
2023-03-16T03:18:02.898Z,29.57
2023-03-16T03:20:30.023Z,28.80
2023-03-16T03:22:56.996Z,28.67
2023-03-16T03:25:23.789Z,29.27
2023-03-16T03:27:51.091Z,28.60
2023-03-16T03:30:20.511Z,27.80
2023-03-16T03:32:47.190Z,27.10
2023-03-16T03:35:15.894Z,27.37
2023-03-16T03:37:44.184Z,26.93
2023-03-16T03:40:13.071Z,27.80
2023-03-16T03:42:41.022Z,27.60
2023-03-16T03:45:08.586Z,25.23
2023-03-16T03:47:35.238Z,23.80
2023-03-16T03:50:01.897Z,31.95
2023-03-16T03:52:29.050Z,26.20
2023-03-16T03:54:55.652Z,25.77
2023-03-16T03:57:22.196Z,24.60
2023-03-16T03:59:48.886Z,24.40
2023-03-16T04:02:15.967Z,22.47
2023-03-16T04:04:43.055Z,23.50
2023-03-16T04:07:10.086Z,23.97
2023-03-16T04:09:36.752Z,22.10
2023-03-16T04:12:05.387Z,21.67
2023-03-16T04:14:31.972Z,22.53
2023-03-16T04:16:58.723Z,21.87
2023-03-16T04:19:26.329Z,24.07
2023-03-16T04:21:53.026Z,23.80
2023-03-16T04:24:19.872Z,23.47
2023-03-16T04:26:46.502Z,24.23
2023-03-16T04:29:14.616Z,23.17
2023-03-16T04:31:42.366Z,23.53
2023-03-16T04:34:09.566Z,24.63
2023-03-16T04:36:36.132Z,24.37
2023-03-16T04:39:04.617Z,23.00
2023-03-16T04:41:31.899Z,22.80
2023-03-16T04:43:58.831Z,23.50
2023-03-16T04:46:26.840Z,24.20
2023-03-16T04:48:54.021Z,22.20
2023-03-16T04:51:21.481Z,23.07
2023-03-16T04:53:48.115Z,23.37
2023-03-16T04:56:19.497Z,23.33
2023-03-16T04:58:47.631Z,24.43
2023-03-16T05:01:14.801Z,23.70
2023-03-16T05:03:41.568Z,30.98
2023-03-16T05:06:08.254Z,24.13
2023-03-16T05:08:34.799Z,21.73
2023-03-16T05:11:01.454Z,21.40
2023-03-16T05:13:28.300Z,21.50
2023-03-16T05:15:55.018Z,21.47
2023-03-16T05:18:22.368Z,20.40
2023-03-16T05:20:53.902Z,20.77
2023-03-16T05:23:21.423Z,20.87
2023-03-16T05:25:49.269Z,21.27
2023-03-16T05:28:16.092Z,21.73
2023-03-16T05:30:45.104Z,21.43
2023-03-16T05:33:12.000Z,20.97
2023-03-16T05:35:38.942Z,20.77
2023-03-16T05:38:05.649Z,20.63
2023-03-16T05:40:33.071Z,22.13
2023-03-16T05:43:00.485Z,20.23
2023-03-16T05:45:28.098Z,19.60
2023-03-16T05:47:54.739Z,20.23
2023-03-16T05:50:21.848Z,21.10
2023-03-16T05:52:48.589Z,21.27
2023-03-16T05:55:16.944Z,21.23
2023-03-16T05:57:44.297Z,20.13
2023-03-16T06:00:17.294Z,21.83
2023-03-16T06:02:51.439Z,21.50
2023-03-16T06:05:19.666Z,21.87
2023-03-16T06:07:46.261Z,21.07
2023-03-16T06:10:13.112Z,20.63
2023-03-16T06:12:39.861Z,22.00
2023-03-16T06:15:07.846Z,21.17
2023-03-16T06:17:35.469Z,21.57
2023-03-16T06:20:02.739Z,22.33
2023-03-16T06:22:30.249Z,21.30
2023-03-16T06:24:56.896Z,23.00
2023-03-16T06:27:26.299Z,22.87
2023-03-16T06:29:53.114Z,23.57
2023-03-16T06:32:19.888Z,23.30
2023-03-16T06:34:46.444Z,24.43
2023-03-16T06:37:13.237Z,22.70
2023-03-16T06:39:40.482Z,23.63
2023-03-16T06:42:07.217Z,23.83
2023-03-16T06:44:33.880Z,23.63
2023-03-16T06:47:01.097Z,23.83
2023-03-16T06:49:27.696Z,24.10
2023-03-16T06:51:54.309Z,29.20
2023-03-16T06:54:21.284Z,25.90
2023-03-16T06:56:47.876Z,24.17
2023-03-16T06:59:14.427Z,22.67
2023-03-16T07:01:42.130Z,22.50
2023-03-16T07:04:08.853Z,23.50
2023-03-16T07:06:35.563Z,24.27
2023-03-16T07:09:02.241Z,22.63
2023-03-16T07:11:28.801Z,24.13
2023-03-16T07:13:55.364Z,23.03
2023-03-16T07:16:22.064Z,24.33
2023-03-16T07:18:48.772Z,23.17
2023-03-16T07:21:15.499Z,23.20
2023-03-16T07:23:42.057Z,21.90
2023-03-16T07:26:08.714Z,22.03
2023-03-16T07:28:35.513Z,21.73
2023-03-16T07:31:04.118Z,21.67
2023-03-16T07:33:32.312Z,22.13
2023-03-16T07:35:59.194Z,22.03
2023-03-16T07:38:25.873Z,21.77
2023-03-16T07:40:52.484Z,18.23
2023-03-16T07:43:19.312Z,17.40
2023-03-16T07:45:50.134Z,17.97
2023-03-16T07:48:17.020Z,16.00
2023-03-16T07:50:44.143Z,15.47
2023-03-16T07:53:10.933Z,17.00
2023-03-16T07:55:38.951Z,16.70
2023-03-16T07:58:06.182Z,14.90
2023-03-16T08:00:33.738Z,15.83
2023-03-16T08:03:01.961Z,15.17
2023-03-16T08:05:28.670Z,17.27
2023-03-16T08:07:58.713Z,15.17
2023-03-16T08:10:25.573Z,15.23
2023-03-16T08:12:52.405Z,13.43
2023-03-16T08:15:19.349Z,14.00
2023-03-16T08:17:46.511Z,15.33
2023-03-16T08:20:14.843Z,13.63
2023-03-16T08:22:46.240Z,12.53
2023-03-16T08:25:14.504Z,11.70
2023-03-16T08:27:42.700Z,10.53
2023-03-16T08:30:11.773Z,10.60
2023-03-16T08:32:41.894Z,11.50
2023-03-16T08:35:10.994Z,10.37
2023-03-16T08:37:37.585Z,11.13
2023-03-16T08:40:06.465Z,11.00
2023-03-16T08:42:33.104Z,9.60
2023-03-16T08:45:00.882Z,10.70
2023-03-16T08:47:27.560Z,10.23
2023-03-16T08:49:54.181Z,10.03
2023-03-16T08:52:22.256Z,9.87
2023-03-16T08:55:02.263Z,10.43
2023-03-16T08:57:29.821Z,11.53
2023-03-16T08:59:56.404Z,9.60
2023-03-16T09:02:23.018Z,10.10
2023-03-16T09:04:49.864Z,10.33
2023-03-16T09:07:16.597Z,9.80
2023-03-16T09:09:43.860Z,9.50
2023-03-16T09:12:11.018Z,8.93
2023-03-16T09:14:38.410Z,8.53
2023-03-16T09:17:07.596Z,8.17
2023-03-16T09:19:50.003Z,8.47
2023-03-16T09:22:18.315Z,8.27
2023-03-16T09:24:44.975Z,8.20
2023-03-16T09:27:12.024Z,9.13
2023-03-16T09:29:38.652Z,7.40
2023-03-16T09:32:05.331Z,7.03
2023-03-16T09:34:33.299Z,6.53
2023-03-16T09:37:00.472Z,5.60
2023-03-16T09:39:27.313Z,5.10
2023-03-16T09:42:08.427Z,5.30
2023-03-16T09:45:09.107Z,5.17
2023-03-16T09:47:37.480Z,5.30
2023-03-16T09:50:08.508Z,5.60
2023-03-16T09:52:50.557Z,5.20
2023-03-16T09:55:35.890Z,4.30
2023-03-16T09:58:10.436Z,4.90
2023-03-16T10:00:45.130Z,4.30
2023-03-16T10:03:31.880Z,4.40
2023-03-16T10:06:04.098Z,4.50
2023-03-16T10:08:35.278Z,4.57
2023-03-16T10:11:31.462Z,4.60
2023-03-16T10:14:02.630Z,4.67
2023-03-16T10:16:40.993Z,4.47
2023-03-16T10:19:23.265Z,4.73
2023-03-16T10:21:54.346Z,4.60
2023-03-16T10:24:50.143Z,4.97
2023-03-16T10:27:44.594Z,4.53
2023-03-16T10:30:33.161Z,4.37
2023-03-16T10:33:17.365Z,5.38
2023-03-16T10:35:48.897Z,5.43
2023-03-16T10:38:39.966Z,5.27
2023-03-16T10:41:20.198Z,5.07
2023-03-16T10:44:14.728Z,5.27
2023-03-16T10:46:50.774Z,5.30
2023-03-16T10:49:29.289Z,5.20
2023-03-16T10:52:02.796Z,4.87
2023-03-16T10:54:39.857Z,4.83
2023-03-16T10:57:28.328Z,5.00
2023-03-16T10:59:59.512Z,5.00
2023-03-16T11:02:32.802Z,4.67
2023-03-16T11:05:13.040Z,4.63
2023-03-16T11:07:39.657Z,4.57
2023-03-16T11:10:29.647Z,4.10
2023-03-16T11:13:02.573Z,5.23
2023-03-16T11:15:38.229Z,5.00
2023-03-16T11:18:05.547Z,4.57
2023-03-16T11:20:34.269Z,4.00
2023-03-16T11:23:01.778Z,4.20
2023-03-16T11:25:42.897Z,4.30
2023-03-16T11:28:19.780Z,3.73
2023-03-16T11:31:19.216Z,3.40
2023-03-16T11:33:47.215Z,3.40
2023-03-16T11:36:21.665Z,3.90
2023-03-16T11:39:10.771Z,4.00
2023-03-16T11:41:53.479Z,3.70
2023-03-16T11:44:52.400Z,3.47
2023-03-16T11:47:43.556Z,4.03
2023-03-16T11:50:28.357Z,3.27
2023-03-16T11:53:19.475Z,3.30
2023-03-16T11:56:08.868Z,3.60
2023-03-16T11:58:54.894Z,3.90
2023-03-16T12:01:58.210Z,3.67
2023-03-16T12:04:57.743Z,3.70
2023-03-16T12:07:47.721Z,3.37
2023-03-16T12:10:18.775Z,3.60
2023-03-16T12:12:53.376Z,3.43
2023-03-16T12:15:21.551Z,3.30
2023-03-16T12:17:51.423Z,3.50
2023-03-16T12:20:23.287Z,3.80
2023-03-16T12:23:03.293Z,3.27
2023-03-16T12:25:34.755Z,3.30
2023-03-16T12:28:05.401Z,3.17
2023-03-16T12:30:59.231Z,3.23
2023-03-16T12:33:50.567Z,3.60
2023-03-16T12:36:23.690Z,3.03
2023-03-16T12:38:57.018Z,3.43
2023-03-16T12:41:37.978Z,3.53
2023-03-16T12:44:13.413Z,3.47
2023-03-16T12:46:52.481Z,3.20
2023-03-16T12:49:21.004Z,3.60
2023-03-16T12:51:59.718Z,3.87
2023-03-16T12:54:26.425Z,3.20
2023-03-16T12:57:00.873Z,3.40
2023-03-16T12:59:42.727Z,3.20
2023-03-16T13:02:28.566Z,3.47
2023-03-16T13:05:16.389Z,3.17
2023-03-16T13:07:52.554Z,3.40
2023-03-16T13:10:22.793Z,3.90
2023-03-16T13:12:51.448Z,3.07
2023-03-16T13:15:22.130Z,3.30
2023-03-16T13:17:50.955Z,3.10
2023-03-16T13:20:31.955Z,3.50
2023-03-16T13:23:17.194Z,3.70
2023-03-16T13:25:46.213Z,3.90
2023-03-16T13:28:15.394Z,3.57
2023-03-16T13:30:48.553Z,3.43
2023-03-16T13:33:23.001Z,3.50
2023-03-16T13:35:52.348Z,3.70
2023-03-16T13:38:22.703Z,3.50
2023-03-16T13:40:52.931Z,4.00
2023-03-16T13:43:23.782Z,3.43
2023-03-16T13:45:50.758Z,3.80
2023-03-16T13:48:18.156Z,3.73
2023-03-16T13:50:51.930Z,3.40
2023-03-16T13:53:25.101Z,3.40
2023-03-16T13:55:53.517Z,3.70
2023-03-16T13:58:35.869Z,3.47
2023-03-16T14:01:05.013Z,4.07
2023-03-16T14:03:35.982Z,3.63
2023-03-16T14:06:04.548Z,3.47
2023-03-16T14:08:32.365Z,3.60
2023-03-16T14:11:01.352Z,3.30
2023-03-16T14:13:29.020Z,3.80
2023-03-16T14:15:58.844Z,3.97
2023-03-16T14:18:37.648Z,3.70
2023-03-16T14:21:16.322Z,3.33
2023-03-16T14:23:48.225Z,3.27
2023-03-16T14:26:18.499Z,3.60
2023-03-16T14:29:18.591Z,3.10
2023-03-16T14:31:45.766Z,3.43
2023-03-16T14:34:26.894Z,3.33
2023-03-16T14:36:53.704Z,3.07
2023-03-16T14:39:21.538Z,3.20
2023-03-16T14:41:50.406Z,3.20
2023-03-16T14:44:28.041Z,2.70
2023-03-16T14:46:59.245Z,2.80
2023-03-16T14:49:34.730Z,3.80
2023-03-16T14:52:04.802Z,3.50
2023-03-16T14:54:31.423Z,3.90
2023-03-16T14:57:05.352Z,3.07
2023-03-16T14:59:33.110Z,3.63
2023-03-16T15:02:01.560Z,3.30
2023-03-16T15:04:34.391Z,2.83
2023-03-16T15:07:21.632Z,3.70
2023-03-16T15:09:50.457Z,3.20
2023-03-16T15:12:19.629Z,3.40
2023-03-16T15:15:05.985Z,3.23
2023-03-16T15:17:32.749Z,3.37
2023-03-16T15:19:59.518Z,2.90
2023-03-16T15:22:32.277Z,3.60
2023-03-16T15:25:00.134Z,2.97
2023-03-16T15:27:34.371Z,3.53
2023-03-16T15:30:01.799Z,3.17
2023-03-16T15:32:28.471Z,3.13
2023-03-16T15:34:55.278Z,3.20
2023-03-16T15:37:24.298Z,3.30
2023-03-16T15:39:51.430Z,3.17
2023-03-16T15:42:19.075Z,2.90
2023-03-16T15:44:46.698Z,3.30
2023-03-16T15:47:14.231Z,3.20
2023-03-16T15:49:47.707Z,3.20
2023-03-16T15:52:43.183Z,2.90
2023-03-16T15:55:43.840Z,3.50
2023-03-16T15:58:21.327Z,2.70
2023-03-16T16:00:48.767Z,3.03
2023-03-16T16:03:15.451Z,3.10
2023-03-16T16:05:42.305Z,3.27
2023-03-16T16:08:09.189Z,3.07
2023-03-16T16:10:36.129Z,3.03
2023-03-16T16:13:03.073Z,2.97
2023-03-16T16:15:33.995Z,2.97
2023-03-16T16:18:20.417Z,3.00
2023-03-16T16:20:48.278Z,3.13
2023-03-16T16:23:14.973Z,2.70
2023-03-16T16:25:42.340Z,2.47
2023-03-16T16:28:30.709Z,3.00
2023-03-16T16:30:59.574Z,2.60
2023-03-16T16:33:34.491Z,2.80
2023-03-16T16:36:04.278Z,2.80
2023-03-16T16:38:31.915Z,2.83
2023-03-16T16:41:02.720Z,2.97
2023-03-16T16:43:37.634Z,3.30
2023-03-16T16:46:16.425Z,2.70
2023-03-16T16:48:46.387Z,2.80
2023-03-16T16:51:27.760Z,3.10
2023-03-16T16:53:57.314Z,2.50
2023-03-16T16:56:32.480Z,3.03
2023-03-16T16:59:07.497Z,3.27
2023-03-16T17:01:35.151Z,3.53
2023-03-16T17:04:03.397Z,3.50
2023-03-16T17:06:30.550Z,4.13
2023-03-16T17:08:57.547Z,4.27
2023-03-16T17:11:27.416Z,3.70
2023-03-16T17:13:58.030Z,3.57
2023-03-16T17:16:28.628Z,3.67
2023-03-16T17:18:55.608Z,3.67
2023-03-16T17:21:25.154Z,3.80
2023-03-16T17:23:52.791Z,3.40
2023-03-16T17:26:27.877Z,3.43
2023-03-16T17:29:16.000Z,3.30
2023-03-16T17:31:43.040Z,3.47
2023-03-16T17:34:17.913Z,3.67
2023-03-16T17:36:46.126Z,3.37
2023-03-16T17:39:20.803Z,3.57
2023-03-16T17:42:00.145Z,3.07
2023-03-16T17:44:32.515Z,3.60
2023-03-16T17:46:59.373Z,3.30
2023-03-16T17:49:28.550Z,3.47
2023-03-16T17:51:55.800Z,3.20
2023-03-16T17:54:22.694Z,3.20
2023-03-16T17:56:51.567Z,3.33
2023-03-16T17:59:21.058Z,2.93
2023-03-16T18:01:48.554Z,3.10
2023-03-16T18:04:21.061Z,2.77
2023-03-16T18:06:48.568Z,3.60
2023-03-16T18:09:19.890Z,3.70
2023-03-16T18:11:49.776Z,3.40
2023-03-16T18:14:34.803Z,4.10
2023-03-16T18:17:05.274Z,4.10
2023-03-16T18:19:32.394Z,3.37
2023-03-16T18:21:58.970Z,3.53
2023-03-16T18:24:26.858Z,3.70
2023-03-16T18:26:55.146Z,4.27
2023-03-16T18:29:22.473Z,4.50
2023-03-16T18:31:49.904Z,5.93
2023-03-16T18:34:25.973Z,4.60
2023-03-16T18:36:53.720Z,4.23
2023-03-16T18:39:22.022Z,4.30
2023-03-16T18:41:48.724Z,3.90
2023-03-16T18:44:23.702Z,3.53
2023-03-16T18:46:53.722Z,3.50
2023-03-16T18:49:31.617Z,3.60
2023-03-16T18:51:58.399Z,3.77
2023-03-16T18:54:30.406Z,4.10
2023-03-16T18:56:58.827Z,3.10
2023-03-16T18:59:26.244Z,3.50
2023-03-16T19:01:53.433Z,2.97
2023-03-16T19:04:27.178Z,3.70
2023-03-16T19:06:54.857Z,3.77
2023-03-16T19:09:30.033Z,3.57
2023-03-16T19:12:03.330Z,3.53
2023-03-16T19:14:34.953Z,3.92
2023-03-16T19:17:01.699Z,3.50
2023-03-16T19:19:28.459Z,3.60
2023-03-16T19:21:58.061Z,3.90
2023-03-16T19:24:27.372Z,4.27
2023-03-16T19:26:54.376Z,4.10
2023-03-16T19:29:33.825Z,4.03
2023-03-16T19:32:01.345Z,4.00
2023-03-16T19:34:28.660Z,4.17
2023-03-16T19:36:55.500Z,4.60
2023-03-16T19:39:22.161Z,4.33
2023-03-16T19:41:55.819Z,4.53
2023-03-16T19:44:27.759Z,4.90
2023-03-16T19:46:55.007Z,4.93
2023-03-16T19:49:24.173Z,4.47
2023-03-16T19:51:52.697Z,4.27
2023-03-16T19:54:33.264Z,4.57
2023-03-16T19:57:04.340Z,4.00
2023-03-16T19:59:34.167Z,3.87
2023-03-16T20:02:00.893Z,4.10
2023-03-16T20:04:28.235Z,4.00
2023-03-16T20:06:54.897Z,4.03
2023-03-16T20:09:22.504Z,3.40
2023-03-16T20:11:50.081Z,3.67
2023-03-16T20:14:30.657Z,4.07
2023-03-16T20:16:57.748Z,4.37
2023-03-16T20:19:24.547Z,4.50
2023-03-16T20:21:51.273Z,4.10
2023-03-16T20:24:20.739Z,4.70
2023-03-16T20:26:49.604Z,4.20
2023-03-16T20:29:22.210Z,4.90
2023-03-16T20:31:49.080Z,4.60
2023-03-16T20:34:23.004Z,4.77
2023-03-16T20:36:49.593Z,4.37
2023-03-16T20:39:16.167Z,4.47
2023-03-16T20:41:42.829Z,4.90
2023-03-16T20:44:14.298Z,5.20
2023-03-16T20:46:41.526Z,5.27
2023-03-16T20:49:32.285Z,4.57
2023-03-16T20:51:59.251Z,5.10
2023-03-16T20:54:25.863Z,4.43
2023-03-16T20:56:52.624Z,4.40
2023-03-16T20:59:24.638Z,5.23
2023-03-16T21:01:54.430Z,4.57
2023-03-16T21:04:24.209Z,4.60
2023-03-16T21:06:51.365Z,4.28
2023-03-16T21:09:19.224Z,4.93
2023-03-16T21:11:46.746Z,4.57
2023-03-16T21:14:23.836Z,5.07
2023-03-16T21:16:51.508Z,4.87
2023-03-16T21:19:21.600Z,4.83
2023-03-16T21:21:48.555Z,4.77
2023-03-16T21:24:15.306Z,4.83
2023-03-16T21:26:43.507Z,4.70
2023-03-16T21:29:17.892Z,5.27
2023-03-16T21:31:44.495Z,4.83
2023-03-16T21:34:24.167Z,5.43
2023-03-16T21:36:51.100Z,4.80
2023-03-16T21:39:20.424Z,4.70
2023-03-16T21:41:49.758Z,5.38
2023-03-16T21:44:16.680Z,4.70
2023-03-16T21:46:43.466Z,4.60
2023-03-16T21:49:11.752Z,5.00
2023-03-16T21:51:38.373Z,5.23
2023-03-16T21:54:07.885Z,6.00
2023-03-16T21:56:35.961Z,5.20
2023-03-16T21:59:02.813Z,5.50
2023-03-16T22:01:31.585Z,4.97
2023-03-16T22:04:04.339Z,4.53
2023-03-16T22:06:31.438Z,5.13
2023-03-16T22:08:59.612Z,5.10
2023-03-16T22:11:30.735Z,5.37
2023-03-16T22:13:59.174Z,5.30
2023-03-16T22:16:28.556Z,5.13
2023-03-16T22:18:56.842Z,5.47
2023-03-16T22:21:33.180Z,5.43
2023-03-16T22:24:01.204Z,4.83
2023-03-16T22:26:29.506Z,5.00
2023-03-16T22:28:57.164Z,4.77
2023-03-16T22:31:33.369Z,4.77
2023-03-16T22:34:01.209Z,5.17
2023-03-16T22:36:28.514Z,4.70
2023-03-16T22:38:59.798Z,5.20
2023-03-16T22:41:28.118Z,5.50
2023-03-16T22:43:55.495Z,4.80
2023-03-16T22:46:25.102Z,4.87
2023-03-16T22:48:53.603Z,4.87
2023-03-16T22:51:34.395Z,4.70
2023-03-16T22:54:04.621Z,4.40
2023-03-16T22:56:32.564Z,5.13
2023-03-16T22:59:02.706Z,4.60
2023-03-16T23:01:38.359Z,5.00
2023-03-16T23:04:19.036Z,4.80
2023-03-16T23:06:47.974Z,4.50
2023-03-16T23:09:16.485Z,5.03
2023-03-16T23:11:44.616Z,4.83
2023-03-16T23:14:18.247Z,4.70
2023-03-16T23:16:46.058Z,4.80
2023-03-16T23:19:36.483Z,4.97
2023-03-16T23:22:05.497Z,4.83
2023-03-16T23:24:33.611Z,5.20
2023-03-16T23:27:01.120Z,4.63
2023-03-16T23:29:28.463Z,5.13
2023-03-16T23:31:55.144Z,4.87
2023-03-16T23:34:24.179Z,4.70
2023-03-16T23:36:51.398Z,5.20
2023-03-16T23:39:18.482Z,4.83
2023-03-16T23:41:47.452Z,5.03
2023-03-16T23:44:27.138Z,4.83
2023-03-16T23:46:54.251Z,4.67
2023-03-16T23:49:25.488Z,4.43
2023-03-16T23:51:52.966Z,5.27
2023-03-16T23:54:22.981Z,4.87
2023-03-16T23:56:50.547Z,4.70
2023-03-16T23:59:17.686Z,4.80
